Time;durP1;ratioP1;P1;durP2;ratioP2;P2;SDS_P1;SDS_P2;PMS_P1;PMS_P2;Temp;Humidity;BMP_temperature;BMP_pressure;BME280_temperature;BME280_humidity;BME280_pressure;Samples;Min_cycle;Max_cycle;Signal;HPM_P1;HPM_P2
2022/10/09 00:01:20;;;;;;;17.20;11.20;;;;;;;17.27;61.14;99545.20;223605;1254;139422;-64
2022/10/09 00:06:30;;;;;;;16.10;8.90;;;;;;;17.20;60.78;99549.88;223591;1247;139512;-64
2022/10/09 00:11:34;;;;;;;12.20;7.30;;;;;;;17.11;60.49;99555.69;224254;1247;139237;-63
2022/10/09 00:16:40;;;;;;;8.70;6.10;;;;;;;17.04;60.22;99569.35;224199;1247;139429;-63
2022/10/09 00:21:43;;;;;;;12.30;5.90;;;;;;;16.99;59.88;99571.29;223520;1249;140320;-62
2022/10/09 00:26:47;;;;;;;9.90;4.40;;;;;;;16.94;59.57;99576.40;223562;1251;139803;-64
2022/10/09 00:31:51;;;;;;;7.50;4.40;;;;;;;16.88;59.11;99583.66;224141;1247;139700;-65
2022/10/09 00:36:54;;;;;;;9.00;4.10;;;;;;;16.84;58.86;99583.47;224212;1247;140089;-63
2022/10/09 00:41:57;;;;;;;8.70;4.70;;;;;;;16.82;58.79;99590.85;223714;1248;139263;-66
2022/10/09 00:47:00;;;;;;;6.00;3.50;;;;;;;16.76;58.55;99600.01;224271;1247;139430;-64
2022/10/09 00:52:06;;;;;;;6.40;3.90;;;;;;;16.72;58.56;99596.20;223661;1253;139610;-64
2022/10/09 00:57:09;;;;;;;10.30;3.70;;;;;;;16.68;58.20;99599.09;223517;1255;138934;-65
2022/10/09 01:02:12;;;;;;;6.00;2.70;;;;;;;16.61;57.78;99609.23;223631;1247;139997;-65
2022/10/09 01:07:15;;;;;;;5.80;2.70;;;;;;;16.52;57.57;99612.61;223564;1254;140131;-65
2022/10/09 01:12:33;;;;;;;7.10;2.80;;;;;;;16.47;57.66;99610.36;224152;1247;139544;-62
2022/10/09 01:17:43;;;;;;;8.50;3.60;;;;;;;16.41;57.64;99613.70;223703;1251;139348;-65
2022/10/09 01:23:04;;;;;;;6.30;3.00;;;;;;;16.36;57.66;99620.66;223650;1247;139164;-65
2022/10/09 01:28:09;;;;;;;6.60;2.90;;;;;;;16.31;57.57;99622.84;223473;1258;140326;-64
2022/10/09 01:33:14;;;;;;;10.10;2.90;;;;;;;16.24;57.38;99620.67;223562;1250;139306;-64
2022/10/09 01:38:19;;;;;;;8.50;3.10;;;;;;;16.22;57.53;99617.09;223575;1257;139559;-64
2022/10/09 01:43:22;;;;;;;6.40;3.30;;;;;;;16.20;57.62;99629.81;223573;1257;139611;-64
2022/10/09 01:48:26;;;;;;;8.30;2.90;;;;;;;16.13;57.78;99639.08;223695;1248;139151;-64
2022/10/09 01:53:31;;;;;;;6.90;3.30;;;;;;;16.08;57.71;99653.05;224306;1239;140581;-61
2022/10/09 01:58:45;;;;;;;6.20;3.00;;;;;;;16.07;57.71;99656.92;223638;1250;139596;-61
2022/10/09 02:03:51;;;;;;;6.30;2.60;;;;;;;16.02;57.69;99666.02;223689;1254;140520;-60
2022/10/09 02:08:54;;;;;;;10.00;2.80;;;;;;;15.98;57.68;99667.73;223611;1254;139361;-61
2022/10/09 02:13:58;;;;;;;6.30;2.00;;;;;;;15.93;57.78;99669.73;224181;1247;139848;-63
2022/10/09 02:19:09;;;;;;;6.10;2.20;;;;;;;15.88;57.66;99676.45;224077;1247;141107;-63
2022/10/09 02:24:19;;;;;;;4.40;1.70;;;;;;;15.85;57.78;99681.41;224246;1247;139402;-65
2022/10/09 02:29:23;;;;;;;5.10;2.10;;;;;;;15.82;57.52;99685.55;223469;1256;139786;-71
2022/10/09 02:34:26;;;;;;;5.60;2.00;;;;;;;15.75;57.63;99691.46;224158;1253;139328;-63
2022/10/09 02:39:29;;;;;;;6.00;2.10;;;;;;;15.70;57.79;99696.48;224232;1252;139649;-64
2022/10/09 02:44:32;;;;;;;5.70;1.90;;;;;;;15.70;57.75;99702.08;223677;1260;139546;-64
2022/10/09 02:49:34;;;;;;;6.70;1.90;;;;;;;15.65;57.82;99703.64;223548;1253;140383;-63
2022/10/09 02:54:37;;;;;;;6.60;1.80;;;;;;;15.57;57.72;99718.15;224166;1246;140097;-64
2022/10/09 02:59:40;;;;;;;5.80;1.90;;;;;;;15.49;58.00;99714.60;224302;1247;140435;-65
2022/10/09 03:04:43;;;;;;;7.80;2.20;;;;;;;15.45;58.02;99727.06;223658;1254;139324;-66
2022/10/09 03:09:46;;;;;;;6.50;2.10;;;;;;;15.44;58.06;99730.23;223610;1254;139588;-64
2022/10/09 03:14:49;;;;;;;6.00;1.70;;;;;;;15.43;58.09;99738.83;223620;1254;139178;-65
2022/10/09 03:19:52;;;;;;;7.40;2.40;;;;;;;15.42;58.28;99740.84;224206;1236;139474;-61
2022/10/09 03:24:55;;;;;;;6.00;2.20;;;;;;;15.41;58.18;99747.20;223616;1252;139859;-65
2022/10/09 03:29:58;;;;;;;12.10;2.00;;;;;;;15.37;58.11;99747.96;223753;1260;139200;-66
2022/10/09 03:35:01;;;;;;;6.30;2.40;;;;;;;15.31;58.13;99749.81;223497;1254;142464;-65
2022/10/09 03:40:04;;;;;;;9.70;3.10;;;;;;;15.24;58.33;99751.82;223494;1259;139554;-61
2022/10/09 03:45:08;;;;;;;8.00;3.70;;;;;;;15.19;58.34;99758.75;223636;1254;139314;-63
2022/10/09 03:50:10;;;;;;;7.10;2.40;;;;;;;15.22;58.55;99757.14;223685;1250;140381;-62
2022/10/09 03:55:13;;;;;;;5.40;2.60;;;;;;;15.21;58.43;99759.49;223611;1254;140247;-64
2022/10/09 04:00:16;;;;;;;10.40;3.00;;;;;;;15.17;58.44;99769.63;223658;1254;140058;-64
2022/10/09 04:05:19;;;;;;;7.50;2.10;;;;;;;15.11;58.36;99772.55;223743;1256;140371;-64
2022/10/09 04:10:22;;;;;;;5.30;2.30;;;;;;;15.01;57.93;99778.58;223653;1253;140460;-63
2022/10/09 04:15:25;;;;;;;6.40;2.30;;;;;;;14.85;57.61;99784.69;223642;1254;161899;-62
2022/10/09 04:20:28;;;;;;;8.20;2.60;;;;;;;14.73;57.74;99797.07;223699;1250;139588;-64
2022/10/09 04:25:31;;;;;;;5.10;2.20;;;;;;;14.62;57.93;99802.48;224160;1238;139865;-61
2022/10/09 04:30:34;;;;;;;3.70;1.80;;;;;;;14.51;57.80;99804.79;223660;1255;139747;-62
2022/10/09 04:35:41;;;;;;;4.70;2.20;;;;;;;14.38;58.05;99812.19;223809;1254;139849;-63
2022/10/09 04:40:55;;;;;;;5.40;2.40;;;;;;;14.29;58.07;99822.30;223586;1251;139766;-62
2022/10/09 04:45:57;;;;;;;6.90;2.40;;;;;;;14.16;57.96;99827.55;223567;1254;139349;-70
2022/10/09 04:51:03;;;;;;;47.70;34.70;;;;;;;14.12;58.09;99832.15;224122;1247;139437;-63
2022/10/09 04:56:09;;;;;;;12.10;6.00;;;;;;;14.11;58.29;99841.26;224145;1247;139754;-66
2022/10/09 05:01:23;;;;;;;6.40;2.50;;;;;;;14.09;58.38;99850.69;223527;1254;139819;-64
2022/10/09 05:06:26;;;;;;;6.70;2.80;;;;;;;14.06;58.50;99857.52;223531;1258;140443;-63
2022/10/09 05:11:29;;;;;;;5.20;2.50;;;;;;;14.03;58.38;99859.62;223602;1251;140733;-63
2022/10/09 05:16:32;;;;;;;26.40;15.40;;;;;;;14.01;58.67;99857.44;223480;1257;139990;-65
2022/10/09 05:21:55;;;;;;;5.60;2.70;;;;;;;13.95;58.83;99860.47;223433;1256;141367;-63
2022/10/09 05:26:57;;;;;;;11.40;4.50;;;;;;;14.00;58.91;99864.84;223646;1254;141333;-65
2022/10/09 05:32:01;;;;;;;5.90;3.00;;;;;;;14.05;58.89;99870.42;224182;1252;141268;-63
2022/10/09 05:37:04;;;;;;;6.70;3.20;;;;;;;14.09;59.11;99876.58;223625;1252;139634;-63
2022/10/09 05:42:07;;;;;;;39.10;27.30;;;;;;;14.11;58.76;99882.86;223565;1251;139304;-63
2022/10/09 05:47:12;;;;;;;6.70;3.20;;;;;;;14.07;58.95;99898.28;223556;1253;140518;-65
2022/10/09 05:52:15;;;;;;;5.30;2.50;;;;;;;14.03;58.78;99911.57;223611;1257;139920;-65
2022/10/09 05:57:18;;;;;;;7.50;2.50;;;;;;;14.01;58.67;99917.22;223582;1255;139369;-66
2022/10/09 06:02:21;;;;;;;6.30;2.50;;;;;;;14.01;58.66;99928.10;224235;1247;139679;-68
2022/10/09 06:07:24;;;;;;;5.80;2.10;;;;;;;14.01;58.60;99928.99;223614;1257;140088;-62
2022/10/09 06:12:26;;;;;;;13.20;6.30;;;;;;;14.01;58.54;99929.00;223516;1241;139308;-63
2022/10/09 06:17:29;;;;;;;7.10;2.30;;;;;;;14.01;58.52;99934.38;223583;1254;139311;-65
2022/10/09 06:22:33;;;;;;;3.60;1.80;;;;;;;14.02;58.49;99950.17;223438;1257;138828;-65
2022/10/09 06:27:36;;;;;;;5.80;2.00;;;;;;;14.03;58.48;99954.77;223539;1253;139730;-64
2022/10/09 06:32:39;;;;;;;5.90;2.50;;;;;;;14.05;58.28;99960.88;223585;1254;139428;-64
2022/10/09 06:37:42;;;;;;;3.30;1.40;;;;;;;14.07;58.37;99967.16;224069;1244;139797;-65
2022/10/09 06:42:45;;;;;;;9.10;5.10;;;;;;;14.06;58.18;99972.91;224148;1244;139724;-64
2022/10/09 06:47:52;;;;;;;7.50;1.80;;;;;;;14.04;58.03;99977.91;224274;1246;139144;-63
2022/10/09 06:52:54;;;;;;;3.40;1.80;;;;;;;14.04;58.15;99979.49;223665;1254;139625;-63
2022/10/09 06:57:58;;;;;;;7.30;2.30;;;;;;;14.11;58.25;99987.94;223668;1254;139788;-63
2022/10/09 07:03:01;;;;;;;2.10;0.50;;;;;;;14.18;58.30;99992.21;223550;1254;140318;-64
2022/10/09 07:08:04;;;;;;;3.90;1.90;;;;;;;14.23;58.28;99995.79;224153;1247;139335;-64
2022/10/09 07:13:07;;;;;;;6.20;1.90;;;;;;;14.23;58.26;99997.08;223575;1255;139578;-64
2022/10/09 07:18:10;;;;;;;3.70;1.60;;;;;;;14.18;58.17;99999.68;224128;1244;139618;-64
2022/10/09 07:23:12;;;;;;;105.50;65.20;;;;;;;14.13;57.94;100000.02;223679;1252;140189;-65
2022/10/09 07:28:15;;;;;;;9.00;5.00;;;;;;;14.07;57.77;100007.15;224064;1244;140544;-65
2022/10/09 07:33:18;;;;;;;5.70;2.10;;;;;;;14.10;58.09;100011.27;224066;1247;139892;-69
2022/10/09 07:38:23;;;;;;;4.40;1.80;;;;;;;14.12;58.17;100017.91;224082;1247;139723;-64
2022/10/09 07:43:26;;;;;;;6.00;1.60;;;;;;;14.15;57.98;100022.54;223533;1251;139736;-65
2022/10/09 07:48:30;;;;;;;5.90;1.80;;;;;;;14.24;57.90;100022.90;223582;1247;139300;-65
2022/10/09 07:53:33;;;;;;;53.00;29.10;;;;;;;14.29;57.93;100027.74;223687;1244;140746;-63
2022/10/09 07:58:37;;;;;;;8.30;3.00;;;;;;;14.27;57.52;100030.21;223390;1255;140757;-66
2022/10/09 08:03:40;;;;;;;7.40;3.30;;;;;;;14.26;57.27;100034.70;223483;1253;139663;-68
2022/10/09 08:08:44;;;;;;;9.10;3.20;;;;;;;14.30;57.29;100034.45;223586;1257;140303;-68
2022/10/09 08:13:48;;;;;;;8.00;4.00;;;;;;;14.36;57.00;100040.14;223482;1248;140810;-68
2022/10/09 08:18:59;;;;;;;8.30;3.80;;;;;;;14.42;57.06;100043.01;224078;1253;139478;-68
2022/10/09 08:24:03;;;;;;;9.40;4.50;;;;;;;14.49;56.96;100042.27;223756;1254;139894;-65
2022/10/09 08:29:07;;;;;;;13.70;5.50;;;;;;;14.57;56.95;100049.64;223606;1248;140825;-67
2022/10/09 08:34:10;;;;;;;10.10;5.00;;;;;;;14.63;56.70;100053.71;223534;1253;139708;-66
2022/10/09 08:39:13;;;;;;;11.70;5.50;;;;;;;14.68;56.52;100057.33;224157;1247;139731;-68
2022/10/09 08:44:22;;;;;;;19.70;12.00;;;;;;;14.75;56.55;100057.41;224136;1247;140022;-68
2022/10/09 08:49:57;;;;;;;10.40;5.50;;;;;;;14.81;56.39;100059.70;224037;1238;163295;-67
2022/10/09 08:55:26;;;;;;;10.40;4.90;;;;;;;14.95;56.29;100062.38;223989;1247;253696;-66
2022/10/09 09:00:39;;;;;;;9.30;3.50;;;;;;;15.02;55.75;100070.71;224085;1247;140738;-69
2022/10/09 09:06:03;;;;;;;6.30;3.20;;;;;;;15.10;55.64;100073.41;224196;1247;139390;-66
2022/10/09 09:11:34;;;;;;;6.20;3.20;;;;;;;15.22;55.30;100066.95;223556;1253;139502;-65
2022/10/09 09:17:05;;;;;;;88.90;59.70;;;;;;;15.37;55.18;100063.81;223572;1238;139685;-63
2022/10/09 09:22:12;;;;;;;7.40;4.10;;;;;;;15.47;54.85;100072.44;223533;1239;139725;-61
2022/10/09 09:27:18;;;;;;;6.90;2.80;;;;;;;15.50;54.20;100068.29;223508;1253;140836;-62
2022/10/09 09:32:25;;;;;;;5.30;2.30;;;;;;;15.57;53.88;100063.90;224052;1241;140778;-62
2022/10/09 09:37:28;;;;;;;3.00;1.50;;;;;;;15.63;53.42;100061.17;223562;1258;140179;-62
2022/10/09 09:42:31;;;;;;;3.20;1.80;;;;;;;15.73;53.29;100062.89;223607;1248;139952;-62
2022/10/09 09:47:49;;;;;;;229.00;162.00;;;;;;;15.77;53.22;100067.60;223693;1257;140490;-63
2022/10/09 09:52:54;;;;;;;8.60;5.80;;;;;;;15.84;53.12;100065.14;223641;1254;140465;-64
2022/10/09 09:58:05;;;;;;;4.60;1.40;;;;;;;15.80;52.47;100072.61;223692;1251;139165;-62
2022/10/09 10:03:13;;;;;;;3.50;1.20;;;;;;;15.75;51.96;100072.19;223626;1254;139849;-61
2022/10/09 10:08:31;;;;;;;2.70;1.00;;;;;;;15.86;51.73;100063.82;223570;1247;141256;-62
2022/10/09 10:13:37;;;;;;;2.70;1.10;;;;;;;15.99;51.68;100052.67;223427;1255;140201;-61
2022/10/09 10:18:42;;;;;;;3.80;1.00;;;;;;;16.12;51.41;100055.38;223500;1251;140584;-62
2022/10/09 10:23:50;;;;;;;3.20;0.90;;;;;;;16.22;50.70;100052.41;223670;1254;139889;-62
2022/10/09 10:29:09;;;;;;;4.30;1.00;;;;;;;16.37;50.48;100044.21;223634;1247;139093;-61
2022/10/09 10:34:24;;;;;;;2.30;1.00;;;;;;;16.49;50.34;100042.63;223601;1247;139414;-62
2022/10/09 10:39:39;;;;;;;4.80;1.80;;;;;;;16.63;50.46;100035.52;223555;1251;140244;-66
2022/10/09 10:44:51;;;;;;;3.30;1.00;;;;;;;16.73;50.42;100041.83;224150;1239;139935;-66
2022/10/09 10:49:54;;;;;;;2.70;1.20;;;;;;;16.70;49.93;100050.80;223502;1251;139059;-64
2022/10/09 10:55:22;;;;;;;2.60;1.20;;;;;;;16.68;49.38;100049.69;223549;1251;139408;-64
2022/10/09 11:00:27;;;;;;;4.80;1.10;;;;;;;16.81;48.98;100043.77;224149;1247;140179;-64
2022/10/09 11:05:39;;;;;;;5.10;1.00;;;;;;;16.95;48.89;100047.05;223525;1257;140443;-64
2022/10/09 11:10:54;;;;;;;2.70;1.30;;;;;;;17.00;48.61;100051.74;223560;1254;140506;-63
2022/10/09 11:16:38;;;;;;;5.30;0.90;;;;;;;16.92;48.14;100044.79;223326;1251;140222;-64
2022/10/09 11:21:56;;;;;;;42.20;28.20;;;;;;;16.96;47.98;100038.54;224019;1244;139343;-65
2022/10/09 11:27:09;;;;;;;5.70;1.70;;;;;;;17.08;47.70;100036.27;223578;1247;140206;-64
2022/10/09 11:32:20;;;;;;;3.80;1.20;;;;;;;17.23;47.77;100035.86;223579;1247;139208;-64
2022/10/09 11:37:28;;;;;;;3.10;1.30;;;;;;;17.32;47.27;100033.78;223555;1251;139226;-64
2022/10/09 11:42:31;;;;;;;169.00;115.90;;;;;;;17.30;46.93;100033.41;223582;1247;140416;-64
2022/10/09 11:48:01;;;;;;;9.40;3.90;;;;;;;17.44;46.85;100029.48;223976;1239;139925;-64
2022/10/09 11:53:09;;;;;;;8.00;2.70;;;;;;;17.41;46.69;100023.83;223551;1254;140082;-64
2022/10/09 11:58:17;;;;;;;3.70;1.10;;;;;;;17.38;47.15;100023.66;223575;1254;139771;-64
2022/10/09 12:03:33;;;;;;;2.80;1.10;;;;;;;17.27;46.68;100025.52;223518;1248;139430;-64
2022/10/09 12:08:52;;;;;;;2.90;1.50;;;;;;;17.08;46.67;100019.04;224127;1243;139464;-65
2022/10/09 12:14:01;;;;;;;4.60;1.20;;;;;;;17.09;47.06;100013.03;223509;1254;139884;-65
2022/10/09 12:19:10;;;;;;;3.90;2.10;;;;;;;17.27;47.30;100006.16;223513;1247;139804;-64
2022/10/09 12:24:27;;;;;;;2.90;1.20;;;;;;;17.42;47.45;100001.45;223643;1246;140403;-64
2022/10/09 12:29:38;;;;;;;8.70;1.30;;;;;;;17.38;47.04;100001.75;224251;1240;139884;-64
2022/10/09 12:34:46;;;;;;;4.70;1.30;;;;;;;17.21;46.91;100005.70;223533;1251;139852;-65
2022/10/09 12:39:49;;;;;;;4.10;1.50;;;;;;;17.04;46.75;100001.80;223562;1260;140020;-64
2022/10/09 12:44:54;;;;;;;3.80;1.10;;;;;;;16.88;46.75;100002.58;223490;1248;139310;-64
2022/10/09 12:50:11;;;;;;;2.20;1.10;;;;;;;16.81;46.98;99997.70;223411;1249;139548;-65
2022/10/09 12:55:22;;;;;;;2.60;1.30;;;;;;;17.01;47.30;99998.96;223976;1241;139142;-66
2022/10/09 13:00:25;;;;;;;4.20;1.00;;;;;;;17.34;47.64;100000.46;223499;1257;140563;-68
2022/10/09 13:05:36;;;;;;;2.30;1.10;;;;;;;17.65;47.20;100000.81;223657;1246;139689;-67
2022/10/09 13:10:39;;;;;;;3.00;1.20;;;;;;;17.78;46.26;99996.44;224089;1247;140061;-66
2022/10/09 13:15:42;;;;;;;4.50;1.40;;;;;;;17.73;45.78;99995.13;223560;1251;139825;-67
2022/10/09 13:20:45;;;;;;;4.10;1.30;;;;;;;17.76;45.75;99991.19;223601;1256;139227;-66
2022/10/09 13:25:48;;;;;;;2.80;1.10;;;;;;;17.72;45.49;99990.54;223506;1256;139718;-64
2022/10/09 13:30:51;;;;;;;3.40;1.10;;;;;;;17.66;45.25;99993.02;224135;1239;140489;-64
2022/10/09 13:35:54;;;;;;;1.80;0.90;;;;;;;17.55;45.40;99988.64;223674;1248;139385;-68
2022/10/09 13:40:58;;;;;;;2.70;1.10;;;;;;;17.47;45.33;99999.11;223539;1247;139709;-67
2022/10/09 13:46:01;;;;;;;2.20;1.00;;;;;;;17.42;45.19;99993.20;224143;1247;139453;-69
2022/10/09 13:51:05;;;;;;;4.60;1.40;;;;;;;17.35;45.30;99991.39;224115;1247;139472;-64
2022/10/09 13:56:08;;;;;;;2.60;1.40;;;;;;;17.28;45.00;99989.25;223511;1254;139502;-66
2022/10/09 14:01:11;;;;;;;2.10;1.00;;;;;;;17.21;44.93;99985.77;223443;1250;140012;-69
2022/10/09 14:06:14;;;;;;;3.40;1.20;;;;;;;17.21;44.71;99985.95;224285;1247;139510;-66
2022/10/09 14:11:17;;;;;;;2.00;1.00;;;;;;;17.20;44.53;99980.85;223517;1244;140914;-70
2022/10/09 14:16:27;;;;;;;3.50;1.00;;;;;;;17.17;44.39;99979.64;224187;1231;139443;-68
2022/10/09 14:21:31;;;;;;;4.10;1.20;;;;;;;17.10;44.30;99981.03;223599;1254;140234;-69
2022/10/09 14:26:34;;;;;;;18.00;14.30;;;;;;;17.05;44.51;99980.34;223489;1247;139306;-67
2022/10/09 14:31:37;;;;;;;5.70;2.50;;;;;;;17.04;45.22;99975.40;224133;1244;139942;-65
2022/10/09 14:36:41;;;;;;;3.50;1.30;;;;;;;17.01;44.92;99973.86;224160;1246;140732;-66
2022/10/09 14:41:44;;;;;;;2.90;1.10;;;;;;;16.96;44.95;99977.05;223670;1251;138730;-65
2022/10/09 14:46:47;;;;;;;1.90;1.00;;;;;;;16.93;44.90;99973.55;223398;1247;140299;-65
2022/10/09 14:51:53;;;;;;;2.90;1.10;;;;;;;16.90;44.87;99973.55;223544;1248;139418;-65
2022/10/09 14:56:55;;;;;;;3.90;1.10;;;;;;;16.89;45.24;99968.29;223523;1246;139983;-67
2022/10/09 15:01:58;;;;;;;4.60;1.30;;;;;;;16.85;45.11;99963.59;223590;1254;139409;-64
2022/10/09 15:07:01;;;;;;;7.50;1.50;;;;;;;16.80;45.15;99963.92;224003;1248;139542;-65
2022/10/09 15:12:05;;;;;;;2.80;1.30;;;;;;;16.74;45.32;99959.50;224235;1247;140529;-65
2022/10/09 15:17:08;;;;;;;5.10;1.70;;;;;;;16.70;45.53;99959.58;223493;1249;139736;-65
2022/10/09 15:22:11;;;;;;;3.80;1.20;;;;;;;16.64;45.86;99957.14;224161;1244;140158;-66
2022/10/09 15:27:14;;;;;;;3.20;1.50;;;;;;;16.56;46.25;99958.63;223559;1255;139849;-65
2022/10/09 15:32:16;;;;;;;4.80;1.80;;;;;;;16.48;46.46;99964.77;223580;1255;139588;-64
2022/10/09 15:37:19;;;;;;;2.80;1.40;;;;;;;16.39;46.70;99970.23;224094;1240;139979;-64
2022/10/09 15:42:22;;;;;;;5.00;1.50;;;;;;;16.28;46.82;99966.91;224244;1241;139987;-63
2022/10/09 15:47:26;;;;;;;4.30;1.80;;;;;;;16.19;46.84;99966.79;224279;1247;140285;-63
2022/10/09 15:52:48;;;;;;;16.20;9.80;;;;;;;16.13;47.50;99966.73;224090;1247;141114;-64
2022/10/09 15:57:52;;;;;;;4.60;1.70;;;;;;;16.06;47.38;99969.67;224126;1240;139683;-64
2022/10/09 16:02:55;;;;;;;3.00;1.90;;;;;;;15.93;47.34;99969.15;223581;1254;139890;-63
2022/10/09 16:07:57;;;;;;;4.10;1.40;;;;;;;15.78;47.37;99969.47;224044;1250;139786;-64
2022/10/09 16:13:03;;;;;;;4.60;1.90;;;;;;;15.62;47.62;99967.89;223254;1254;139281;-63
2022/10/09 16:18:06;;;;;;;4.10;1.50;;;;;;;15.50;47.76;99969.42;223574;1254;139869;-63
2022/10/09 16:23:09;;;;;;;3.50;1.70;;;;;;;15.38;48.07;99978.05;224038;1245;140501;-63
2022/10/09 16:28:12;;;;;;;4.20;1.80;;;;;;;15.24;48.27;99987.41;223340;1247;139322;-65
2022/10/09 16:33:15;;;;;;;3.70;1.70;;;;;;;15.08;48.45;99992.38;223435;1255;139465;-65
2022/10/09 16:38:19;;;;;;;3.80;1.80;;;;;;;14.94;48.90;99995.44;224031;1247;139670;-64
2022/10/09 16:43:22;;;;;;;5.80;2.10;;;;;;;14.82;49.20;99998.38;223487;1254;139181;-64
2022/10/09 16:48:25;;;;;;;7.90;2.10;;;;;;;14.70;49.35;100003.44;223501;1255;139607;-65
2022/10/09 16:53:28;;;;;;;33.10;19.20;;;;;;;14.57;49.58;100010.29;223677;1250;140777;-65
2022/10/09 16:58:31;;;;;;;6.00;2.60;;;;;;;14.46;49.73;100011.67;223492;1247;140139;-63
2022/10/09 17:03:34;;;;;;;6.00;2.70;;;;;;;14.35;50.08;100018.11;224229;1247;139859;-63
2022/10/09 17:08:38;;;;;;;5.40;2.80;;;;;;;14.21;50.36;100022.69;223467;1257;140963;-63
2022/10/09 17:13:41;;;;;;;6.50;3.00;;;;;;;14.08;50.73;100027.42;223465;1254;139783;-63
2022/10/09 17:18:45;;;;;;;6.20;3.00;;;;;;;13.96;51.09;100030.44;224163;1247;139960;-62
2022/10/09 17:23:52;;;;;;;5.10;2.70;;;;;;;13.86;51.55;100032.48;223492;1251;140697;-62
2022/10/09 17:28:57;;;;;;;6.90;3.00;;;;;;;13.75;51.60;100038.50;223945;1247;139798;-63
2022/10/09 17:34:03;;;;;;;8.80;3.30;;;;;;;13.63;52.13;100041.71;224016;1247;139392;-64
2022/10/09 17:39:10;;;;;;;8.30;3.50;;;;;;;13.53;52.15;100046.37;224083;1247;139762;-63
2022/10/09 17:44:14;;;;;;;7.80;3.30;;;;;;;13.44;52.70;100043.13;223410;1254;140248;-64
2022/10/09 17:49:17;;;;;;;10.30;3.70;;;;;;;13.36;53.05;100045.77;223243;1254;140627;-64
2022/10/09 17:54:20;;;;;;;9.00;3.20;;;;;;;13.29;53.08;100049.04;223497;1254;139875;-64
2022/10/09 17:59:23;;;;;;;8.70;3.80;;;;;;;13.19;53.46;100049.00;223498;1254;140936;-63
2022/10/09 18:04:26;;;;;;;6.60;3.40;;;;;;;13.08;53.80;100053.56;224152;1247;139538;-64
2022/10/09 18:09:29;;;;;;;7.70;4.30;;;;;;;12.99;54.02;100055.63;223557;1257;139189;-64
2022/10/09 18:14:32;;;;;;;10.10;4.40;;;;;;;12.87;54.16;100056.83;224094;1240;139934;-63
2022/10/09 18:19:35;;;;;;;10.20;5.50;;;;;;;12.80;54.27;100053.55;224097;1247;140225;-63
2022/10/09 18:24:38;;;;;;;16.00;5.90;;;;;;;12.73;54.66;100056.77;223501;1255;140608;-63
2022/10/09 18:29:41;;;;;;;11.70;5.50;;;;;;;12.63;54.77;100060.30;223604;1241;139822;-62
2022/10/09 18:34:44;;;;;;;11.40;4.90;;;;;;;12.56;54.97;100063.55;223530;1256;140600;-63
2022/10/09 18:39:48;;;;;;;8.80;5.10;;;;;;;12.48;55.35;100068.58;223466;1254;140429;-63
2022/10/09 18:44:51;;;;;;;12.00;6.50;;;;;;;12.40;55.71;100074.35;224118;1241;138764;-62
2022/10/09 18:49:59;;;;;;;33.40;20.60;;;;;;;12.36;56.07;100077.58;223604;1256;140215;-63
2022/10/09 18:55:05;;;;;;;14.80;6.70;;;;;;;12.54;57.09;100081.27;224082;1247;141178;-62
2022/10/09 19:00:09;;;;;;;94.10;64.40;;;;;;;12.61;56.20;100083.55;223667;1249;140619;-62
2022/10/09 19:05:12;;;;;;;16.60;8.60;;;;;;;12.61;56.31;100086.61;224147;1246;140628;-62
2022/10/09 19:10:15;;;;;;;14.50;7.30;;;;;;;12.57;56.06;100088.92;224125;1255;139482;-61
2022/10/09 19:15:18;;;;;;;15.80;8.00;;;;;;;12.45;56.20;100092.21;223591;1254;140236;-62
2022/10/09 19:20:21;;;;;;;16.40;8.50;;;;;;;12.32;56.10;100090.42;223590;1254;139546;-64
2022/10/09 19:25:25;;;;;;;18.10;8.00;;;;;;;12.19;56.30;100091.99;223581;1251;139393;-63
2022/10/09 19:30:28;;;;;;;16.10;9.00;;;;;;;12.00;56.08;100095.99;223522;1248;140738;-64
2022/10/09 19:35:31;;;;;;;14.70;9.00;;;;;;;11.86;56.46;100094.91;224136;1246;140550;-64
2022/10/09 19:40:36;;;;;;;15.80;9.20;;;;;;;11.76;56.78;100099.33;223520;1255;139752;-64
2022/10/09 19:45:40;;;;;;;15.80;9.60;;;;;;;11.67;56.61;100099.43;224160;1244;139797;-65
2022/10/09 19:50:44;;;;;;;18.80;9.90;;;;;;;11.56;56.92;100097.11;223547;1254;140895;-63
2022/10/09 19:55:47;;;;;;;17.60;8.70;;;;;;;11.46;57.45;100094.41;224051;1247;140209;-63
2022/10/09 20:00:50;;;;;;;16.50;8.80;;;;;;;11.39;57.17;100098.98;224001;1247;139605;-64
2022/10/09 20:05:53;;;;;;;18.50;9.70;;;;;;;11.31;57.40;100106.64;224321;1246;139786;-64
2022/10/09 20:10:58;;;;;;;15.20;9.70;;;;;;;11.20;57.36;100108.09;224137;1246;140222;-64
2022/10/09 20:16:04;;;;;;;14.40;9.50;;;;;;;11.08;57.37;100108.09;224113;1244;139801;-64
2022/10/09 20:21:12;;;;;;;14.50;9.40;;;;;;;11.00;57.53;100106.86;223588;1256;140162;-63
2022/10/09 20:26:18;;;;;;;17.50;10.00;;;;;;;10.91;57.47;100104.46;223600;1252;139620;-64
2022/10/09 20:31:24;;;;;;;15.90;9.20;;;;;;;10.88;57.91;100108.52;223547;1254;140108;-64
2022/10/09 20:36:30;;;;;;;16.80;9.70;;;;;;;10.83;57.99;100104.81;223692;1255;141632;-64
2022/10/09 20:41:34;;;;;;;17.70;9.60;;;;;;;10.77;58.30;100105.09;223716;1254;139997;-64
2022/10/09 20:46:38;;;;;;;15.20;9.80;;;;;;;10.81;58.12;100103.51;223493;1253;140765;-64
2022/10/09 20:51:41;;;;;;;21.70;10.20;;;;;;;10.85;58.31;100098.85;223523;1257;140755;-64
2022/10/09 20:56:45;;;;;;;18.50;10.10;;;;;;;10.85;58.42;100096.54;223524;1254;140744;-65
2022/10/09 21:01:48;;;;;;;20.60;9.80;;;;;;;10.83;58.55;100100.57;224160;1246;140248;-65
2022/10/09 21:06:51;;;;;;;15.80;9.90;;;;;;;10.77;58.32;100098.38;223524;1254;140861;-68
2022/10/09 21:11:54;;;;;;;18.30;8.70;;;;;;;10.69;58.27;100101.39;223640;1255;140035;-64
2022/10/09 21:16:57;;;;;;;16.80;9.60;;;;;;;10.62;58.35;100106.67;224107;1244;140332;-64
2022/10/09 21:22:00;;;;;;;17.60;9.60;;;;;;;10.55;58.31;100109.11;223557;1258;139739;-64
2022/10/09 21:27:03;;;;;;;18.30;9.20;;;;;;;10.49;58.63;100110.44;223513;1254;140285;-61
2022/10/09 21:32:06;;;;;;;16.40;10.00;;;;;;;10.41;58.50;100113.46;223406;1258;141483;-62
2022/10/09 21:37:12;;;;;;;15.70;10.30;;;;;;;10.34;59.13;100120.52;223655;1254;140748;-61
2022/10/09 21:42:23;;;;;;;17.20;9.60;;;;;;;10.28;58.98;100111.92;223597;1258;140510;-64
2022/10/09 21:47:26;;;;;;;15.50;9.60;;;;;;;10.25;58.92;100112.37;223548;1251;140348;-60
2022/10/09 21:52:29;;;;;;;15.60;9.30;;;;;;;10.22;59.14;100112.52;223619;1255;139717;-62
2022/10/09 21:57:32;;;;;;;16.10;9.00;;;;;;;10.20;59.27;100117.72;224195;1247;139594;-61
2022/10/09 22:02:36;;;;;;;18.30;9.30;;;;;;;10.16;58.98;100121.77;223590;1251;140258;-63
2022/10/09 22:07:38;;;;;;;17.10;9.80;;;;;;;10.14;59.28;100123.96;223516;1258;140429;-64
2022/10/09 22:12:41;;;;;;;14.50;9.00;;;;;;;10.17;59.28;100116.95;224124;1247;140192;-62
2022/10/09 22:17:44;;;;;;;16.80;9.10;;;;;;;10.24;59.50;100110.30;224292;1242;140249;-62
2022/10/09 22:22:47;;;;;;;24.60;9.90;;;;;;;10.27;59.82;100107.52;223589;1254;141221;-62
2022/10/09 22:27:50;;;;;;;12.80;7.70;;;;;;;10.29;59.62;100107.09;223636;1261;139929;-62
2022/10/09 22:32:54;;;;;;;17.80;9.90;;;;;;;10.28;59.59;100103.92;224115;1244;139672;-62
2022/10/09 22:37:57;;;;;;;17.60;9.60;;;;;;;10.27;59.57;100105.89;224190;1245;139829;-62
2022/10/09 22:42:59;;;;;;;15.40;9.30;;;;;;;10.25;59.91;100101.56;223651;1254;139893;-62
2022/10/09 22:48:03;;;;;;;19.80;9.90;;;;;;;10.21;59.68;100100.10;224384;1247;140886;-62
2022/10/09 22:53:08;;;;;;;19.20;10.10;;;;;;;10.18;59.79;100098.45;224145;1246;139638;-63
2022/10/09 22:58:10;;;;;;;17.50;9.60;;;;;;;10.14;59.92;100096.31;223660;1254;139856;-63
2022/10/09 23:03:13;;;;;;;15.60;10.30;;;;;;;10.15;59.89;100096.29;223677;1251;139444;-63
2022/10/09 23:08:17;;;;;;;16.70;9.50;;;;;;;10.15;60.04;100098.23;223629;1254;139798;-63